sensor_id;sensor_type;location;lat;lon;timestamp;P1;durP1;ratioP1;P2;durP2;ratioP2
50731;SDS011;36700;50.488;2.544;2023-08-17T00:01:47;5.10;;;2.40;;
50731;SDS011;36700;50.488;2.544;2023-08-17T00:04:13;3.92;;;2.35;;
50731;SDS011;36700;50.488;2.544;2023-08-17T00:06:39;5.20;;;2.40;;
50731;SDS011;36700;50.488;2.544;2023-08-17T00:09:06;5.38;;;2.42;;
50731;SDS011;36700;50.488;2.544;2023-08-17T00:11:32;4.50;;;2.50;;
50731;SDS011;36700;50.488;2.544;2023-08-17T00:13:59;4.75;;;2.58;;
50731;SDS011;36700;50.488;2.544;2023-08-17T00:16:25;3.70;;;2.28;;
50731;SDS011;36700;50.488;2.544;2023-08-17T00:18:51;5.07;;;2.60;;
50731;SDS011;36700;50.488;2.544;2023-08-17T00:21:17;4.00;;;2.30;;
50731;SDS011;36700;50.488;2.544;2023-08-17T00:23:43;4.65;;;2.45;;
50731;SDS011;36700;50.488;2.544;2023-08-17T00:26:09;4.63;;;2.30;;
50731;SDS011;36700;50.488;2.544;2023-08-17T00:28:36;7.57;;;2.95;;
50731;SDS011;36700;50.488;2.544;2023-08-17T00:31:02;6.22;;;2.80;;
50731;SDS011;36700;50.488;2.544;2023-08-17T00:33:29;4.82;;;2.30;;
50731;SDS011;36700;50.488;2.544;2023-08-17T00:35:55;5.80;;;2.40;;
50731;SDS011;36700;50.488;2.544;2023-08-17T00:38:21;6.07;;;2.47;;
50731;SDS011;36700;50.488;2.544;2023-08-17T00:40:47;4.95;;;2.50;;
50731;SDS011;36700;50.488;2.544;2023-08-17T00:43:13;5.35;;;2.22;;
50731;SDS011;36700;50.488;2.544;2023-08-17T00:45:39;4.95;;;2.50;;
50731;SDS011;36700;50.488;2.544;2023-08-17T00:48:06;5.53;;;2.63;;
50731;SDS011;36700;50.488;2.544;2023-08-17T00:50:34;4.97;;;2.45;;
50731;SDS011;36700;50.488;2.544;2023-08-17T00:53:00;5.40;;;2.55;;
50731;SDS011;36700;50.488;2.544;2023-08-17T00:55:27;5.93;;;2.28;;
50731;SDS011;36700;50.488;2.544;2023-08-17T00:57:53;5.22;;;2.60;;
50731;SDS011;36700;50.488;2.544;2023-08-17T01:00:21;4.45;;;2.50;;
50731;SDS011;36700;50.488;2.544;2023-08-17T01:02:49;3.85;;;2.47;;
50731;SDS011;36700;50.488;2.544;2023-08-17T01:05:15;4.88;;;2.50;;
50731;SDS011;36700;50.488;2.544;2023-08-17T01:07:41;5.72;;;2.42;;
50731;SDS011;36700;50.488;2.544;2023-08-17T01:10:07;4.00;;;2.10;;
50731;SDS011;36700;50.488;2.544;2023-08-17T01:13:18;4.28;;;2.20;;
50731;SDS011;36700;50.488;2.544;2023-08-17T01:15:40;4.03;;;2.20;;
50731;SDS011;36700;50.488;2.544;2023-08-17T01:20:49;4.70;;;2.50;;
50731;SDS011;36700;50.488;2.544;2023-08-17T01:23:15;3.83;;;2.50;;
50731;SDS011;36700;50.488;2.544;2023-08-17T01:25:41;5.97;;;2.40;;
50731;SDS011;36700;50.488;2.544;2023-08-17T01:28:07;4.60;;;2.33;;
50731;SDS011;36700;50.488;2.544;2023-08-17T01:30:37;4.68;;;2.40;;
50731;SDS011;36700;50.488;2.544;2023-08-17T01:33:09;4.05;;;2.50;;
50731;SDS011;36700;50.488;2.544;2023-08-17T01:35:50;4.43;;;2.20;;
50731;SDS011;36700;50.488;2.544;2023-08-17T01:38:23;4.75;;;2.40;;
50731;SDS011;36700;50.488;2.544;2023-08-17T01:40:51;6.72;;;2.47;;
50731;SDS011;36700;50.488;2.544;2023-08-17T01:43:19;4.65;;;2.50;;
50731;SDS011;36700;50.488;2.544;2023-08-17T01:45:46;4.55;;;2.40;;
50731;SDS011;36700;50.488;2.544;2023-08-17T01:48:12;6.00;;;2.65;;
50731;SDS011;36700;50.488;2.544;2023-08-17T01:50:38;5.00;;;2.40;;
50731;SDS011;36700;50.488;2.544;2023-08-17T01:53:03;4.18;;;2.33;;
50731;SDS011;36700;50.488;2.544;2023-08-17T01:55:29;5.07;;;2.55;;
50731;SDS011;36700;50.488;2.544;2023-08-17T01:57:55;4.15;;;2.50;;
50731;SDS011;36700;50.488;2.544;2023-08-17T02:00:21;4.60;;;2.78;;
50731;SDS011;36700;50.488;2.544;2023-08-17T02:02:47;5.43;;;2.50;;
50731;SDS011;36700;50.488;2.544;2023-08-17T02:05:13;6.63;;;2.83;;
50731;SDS011;36700;50.488;2.544;2023-08-17T02:07:39;4.72;;;2.60;;
50731;SDS011;36700;50.488;2.544;2023-08-17T02:10:05;5.30;;;2.50;;
50731;SDS011;36700;50.488;2.544;2023-08-17T02:12:31;5.20;;;2.40;;
50731;SDS011;36700;50.488;2.544;2023-08-17T02:14:57;4.95;;;2.80;;
50731;SDS011;36700;50.488;2.544;2023-08-17T02:17:23;5.32;;;2.65;;
50731;SDS011;36700;50.488;2.544;2023-08-17T02:19:49;5.57;;;2.70;;
50731;SDS011;36700;50.488;2.544;2023-08-17T02:22:15;5.45;;;2.58;;
50731;SDS011;36700;50.488;2.544;2023-08-17T02:24:41;5.65;;;2.60;;
50731;SDS011;36700;50.488;2.544;2023-08-17T02:27:08;7.70;;;3.00;;
50731;SDS011;36700;50.488;2.544;2023-08-17T02:29:35;7.68;;;2.55;;
50731;SDS011;36700;50.488;2.544;2023-08-17T02:32:01;4.63;;;2.63;;
50731;SDS011;36700;50.488;2.544;2023-08-17T02:34:27;5.00;;;2.78;;
50731;SDS011;36700;50.488;2.544;2023-08-17T02:36:53;4.55;;;2.67;;
50731;SDS011;36700;50.488;2.544;2023-08-17T02:39:18;6.47;;;3.00;;
50731;SDS011;36700;50.488;2.544;2023-08-17T02:41:44;4.95;;;2.78;;
50731;SDS011;36700;50.488;2.544;2023-08-17T02:44:10;5.22;;;2.85;;
50731;SDS011;36700;50.488;2.544;2023-08-17T02:46:36;4.47;;;2.58;;
50731;SDS011;36700;50.488;2.544;2023-08-17T02:49:02;3.53;;;2.40;;
50731;SDS011;36700;50.488;2.544;2023-08-17T02:51:28;7.15;;;2.75;;
50731;SDS011;36700;50.488;2.544;2023-08-17T02:53:54;6.60;;;2.90;;
50731;SDS011;36700;50.488;2.544;2023-08-17T02:56:20;5.60;;;2.70;;
50731;SDS011;36700;50.488;2.544;2023-08-17T02:58:46;4.85;;;2.90;;
50731;SDS011;36700;50.488;2.544;2023-08-17T03:01:12;5.60;;;2.90;;
50731;SDS011;36700;50.488;2.544;2023-08-17T03:03:38;3.90;;;2.58;;
50731;SDS011;36700;50.488;2.544;2023-08-17T03:06:04;6.40;;;3.00;;
50731;SDS011;36700;50.488;2.544;2023-08-17T03:08:30;5.90;;;2.85;;
50731;SDS011;36700;50.488;2.544;2023-08-17T03:10:56;4.18;;;2.50;;
50731;SDS011;36700;50.488;2.544;2023-08-17T03:13:22;6.20;;;2.75;;
50731;SDS011;36700;50.488;2.544;2023-08-17T03:15:48;3.97;;;2.22;;
50731;SDS011;36700;50.488;2.544;2023-08-17T03:18:14;4.03;;;2.40;;
50731;SDS011;36700;50.488;2.544;2023-08-17T03:20:40;4.93;;;2.85;;
50731;SDS011;36700;50.488;2.544;2023-08-17T03:23:06;5.93;;;2.67;;
50731;SDS011;36700;50.488;2.544;2023-08-17T03:25:32;4.53;;;2.65;;
50731;SDS011;36700;50.488;2.544;2023-08-17T03:27:59;3.90;;;2.40;;
50731;SDS011;36700;50.488;2.544;2023-08-17T03:30:25;5.47;;;2.63;;
50731;SDS011;36700;50.488;2.544;2023-08-17T03:32:51;5.80;;;2.72;;
50731;SDS011;36700;50.488;2.544;2023-08-17T03:35:17;3.90;;;2.30;;
50731;SDS011;36700;50.488;2.544;2023-08-17T03:37:43;4.22;;;2.17;;
50731;SDS011;36700;50.488;2.544;2023-08-17T03:40:10;4.40;;;2.53;;
50731;SDS011;36700;50.488;2.544;2023-08-17T03:42:36;3.88;;;2.50;;
50731;SDS011;36700;50.488;2.544;2023-08-17T03:45:03;5.35;;;2.70;;
50731;SDS011;36700;50.488;2.544;2023-08-17T03:47:29;4.57;;;2.80;;
50731;SDS011;36700;50.488;2.544;2023-08-17T03:49:55;5.78;;;2.80;;
50731;SDS011;36700;50.488;2.544;2023-08-17T03:52:21;4.10;;;2.53;;
50731;SDS011;36700;50.488;2.544;2023-08-17T03:54:47;4.07;;;2.28;;
50731;SDS011;36700;50.488;2.544;2023-08-17T03:57:13;6.10;;;2.90;;
50731;SDS011;36700;50.488;2.544;2023-08-17T03:59:39;5.22;;;2.67;;
50731;SDS011;36700;50.488;2.544;2023-08-17T04:02:05;6.57;;;2.83;;
50731;SDS011;36700;50.488;2.544;2023-08-17T04:04:31;3.55;;;2.25;;
50731;SDS011;36700;50.488;2.544;2023-08-17T04:06:57;4.68;;;2.50;;
50731;SDS011;36700;50.488;2.544;2023-08-17T04:09:23;4.28;;;2.83;;
50731;SDS011;36700;50.488;2.544;2023-08-17T04:11:49;5.03;;;2.90;;
50731;SDS011;36700;50.488;2.544;2023-08-17T04:14:15;5.28;;;2.88;;
50731;SDS011;36700;50.488;2.544;2023-08-17T04:16:41;5.30;;;2.90;;
50731;SDS011;36700;50.488;2.544;2023-08-17T04:19:07;5.88;;;3.00;;
50731;SDS011;36700;50.488;2.544;2023-08-17T04:21:33;5.43;;;2.80;;
50731;SDS011;36700;50.488;2.544;2023-08-17T04:23:59;5.20;;;2.50;;
50731;SDS011;36700;50.488;2.544;2023-08-17T04:26:25;6.47;;;2.92;;
50731;SDS011;36700;50.488;2.544;2023-08-17T04:28:51;5.13;;;2.67;;
50731;SDS011;36700;50.488;2.544;2023-08-17T04:31:17;6.40;;;2.85;;
50731;SDS011;36700;50.488;2.544;2023-08-17T04:33:42;5.88;;;2.90;;
50731;SDS011;36700;50.488;2.544;2023-08-17T04:36:08;6.15;;;2.97;;
50731;SDS011;36700;50.488;2.544;2023-08-17T04:38:34;4.28;;;2.65;;
50731;SDS011;36700;50.488;2.544;2023-08-17T04:41:00;5.40;;;2.60;;
50731;SDS011;36700;50.488;2.544;2023-08-17T04:43:26;6.13;;;2.88;;
50731;SDS011;36700;50.488;2.544;2023-08-17T04:45:52;5.25;;;2.70;;
50731;SDS011;36700;50.488;2.544;2023-08-17T04:48:18;5.10;;;2.67;;
50731;SDS011;36700;50.488;2.544;2023-08-17T04:50:44;3.95;;;2.58;;
50731;SDS011;36700;50.488;2.544;2023-08-17T04:53:10;4.57;;;2.83;;
50731;SDS011;36700;50.488;2.544;2023-08-17T04:55:36;4.75;;;2.50;;
50731;SDS011;36700;50.488;2.544;2023-08-17T04:58:02;6.05;;;2.78;;
50731;SDS011;36700;50.488;2.544;2023-08-17T05:00:28;5.03;;;2.67;;
50731;SDS011;36700;50.488;2.544;2023-08-17T05:02:54;4.70;;;2.50;;
50731;SDS011;36700;50.488;2.544;2023-08-17T05:05:21;5.05;;;2.67;;
50731;SDS011;36700;50.488;2.544;2023-08-17T05:07:47;6.70;;;2.70;;
50731;SDS011;36700;50.488;2.544;2023-08-17T05:10:13;4.53;;;2.50;;
50731;SDS011;36700;50.488;2.544;2023-08-17T05:12:39;5.25;;;2.83;;
50731;SDS011;36700;50.488;2.544;2023-08-17T05:15:05;4.78;;;2.80;;
50731;SDS011;36700;50.488;2.544;2023-08-17T05:17:31;5.20;;;2.67;;
50731;SDS011;36700;50.488;2.544;2023-08-17T05:19:57;4.78;;;2.70;;
50731;SDS011;36700;50.488;2.544;2023-08-17T05:22:23;4.13;;;2.63;;
50731;SDS011;36700;50.488;2.544;2023-08-17T05:24:49;5.85;;;2.80;;
50731;SDS011;36700;50.488;2.544;2023-08-17T05:27:15;4.57;;;2.55;;
50731;SDS011;36700;50.488;2.544;2023-08-17T05:29:41;5.43;;;2.67;;
50731;SDS011;36700;50.488;2.544;2023-08-17T05:32:07;5.22;;;2.78;;
50731;SDS011;36700;50.488;2.544;2023-08-17T05:34:33;4.43;;;2.70;;
50731;SDS011;36700;50.488;2.544;2023-08-17T05:36:59;4.82;;;2.55;;
50731;SDS011;36700;50.488;2.544;2023-08-17T05:39:25;6.35;;;2.53;;
50731;SDS011;36700;50.488;2.544;2023-08-17T05:41:51;5.93;;;3.00;;
50731;SDS011;36700;50.488;2.544;2023-08-17T05:44:17;5.05;;;2.58;;
50731;SDS011;36700;50.488;2.544;2023-08-17T05:46:43;5.22;;;2.60;;
50731;SDS011;36700;50.488;2.544;2023-08-17T05:49:09;7.20;;;3.05;;
50731;SDS011;36700;50.488;2.544;2023-08-17T05:51:35;5.28;;;2.53;;
50731;SDS011;36700;50.488;2.544;2023-08-17T05:54:01;5.45;;;2.83;;
50731;SDS011;36700;50.488;2.544;2023-08-17T05:56:27;4.45;;;2.40;;
50731;SDS011;36700;50.488;2.544;2023-08-17T05:58:54;5.75;;;2.40;;
50731;SDS011;36700;50.488;2.544;2023-08-17T06:01:20;4.35;;;2.42;;
50731;SDS011;36700;50.488;2.544;2023-08-17T06:03:45;3.58;;;2.50;;
50731;SDS011;36700;50.488;2.544;2023-08-17T06:06:11;6.07;;;2.53;;
50731;SDS011;36700;50.488;2.544;2023-08-17T06:08:37;4.95;;;2.55;;
50731;SDS011;36700;50.488;2.544;2023-08-17T06:11:03;6.13;;;2.70;;
50731;SDS011;36700;50.488;2.544;2023-08-17T06:13:29;4.85;;;2.60;;
50731;SDS011;36700;50.488;2.544;2023-08-17T06:15:56;6.15;;;2.53;;
50731;SDS011;36700;50.488;2.544;2023-08-17T06:18:23;5.93;;;2.50;;
50731;SDS011;36700;50.488;2.544;2023-08-17T06:20:49;5.72;;;2.70;;
50731;SDS011;36700;50.488;2.544;2023-08-17T06:23:19;4.10;;;2.50;;
50731;SDS011;36700;50.488;2.544;2023-08-17T06:25:45;4.60;;;2.60;;
50731;SDS011;36700;50.488;2.544;2023-08-17T06:28:11;5.45;;;2.50;;
50731;SDS011;36700;50.488;2.544;2023-08-17T06:30:37;5.20;;;2.72;;
50731;SDS011;36700;50.488;2.544;2023-08-17T06:33:03;4.50;;;2.50;;
50731;SDS011;36700;50.488;2.544;2023-08-17T06:35:30;4.95;;;2.15;;
50731;SDS011;36700;50.488;2.544;2023-08-17T06:37:56;5.75;;;2.78;;
50731;SDS011;36700;50.488;2.544;2023-08-17T06:40:26;5.35;;;2.60;;
50731;SDS011;36700;50.488;2.544;2023-08-17T06:42:53;3.28;;;2.30;;
50731;SDS011;36700;50.488;2.544;2023-08-17T06:45:20;5.97;;;2.40;;
50731;SDS011;36700;50.488;2.544;2023-08-17T06:47:46;5.43;;;2.38;;
50731;SDS011;36700;50.488;2.544;2023-08-17T06:50:14;3.40;;;2.25;;
50731;SDS011;36700;50.488;2.544;2023-08-17T06:52:40;3.63;;;2.40;;
50731;SDS011;36700;50.488;2.544;2023-08-17T06:55:06;5.53;;;2.30;;
50731;SDS011;36700;50.488;2.544;2023-08-17T06:57:33;3.97;;;2.42;;
50731;SDS011;36700;50.488;2.544;2023-08-17T07:00:00;3.65;;;2.40;;
50731;SDS011;36700;50.488;2.544;2023-08-17T07:02:26;4.05;;;2.40;;
50731;SDS011;36700;50.488;2.544;2023-08-17T07:04:52;3.92;;;2.22;;
50731;SDS011;36700;50.488;2.544;2023-08-17T07:07:18;3.47;;;1.95;;
50731;SDS011;36700;50.488;2.544;2023-08-17T07:09:44;3.97;;;2.33;;
50731;SDS011;36700;50.488;2.544;2023-08-17T07:12:10;3.95;;;2.17;;
50731;SDS011;36700;50.488;2.544;2023-08-17T07:14:36;5.43;;;2.40;;
50731;SDS011;36700;50.488;2.544;2023-08-17T07:17:02;4.05;;;2.30;;
50731;SDS011;36700;50.488;2.544;2023-08-17T07:19:28;3.50;;;2.08;;
50731;SDS011;36700;50.488;2.544;2023-08-17T07:21:54;3.85;;;1.90;;
50731;SDS011;36700;50.488;2.544;2023-08-17T07:24:20;4.25;;;2.00;;
50731;SDS011;36700;50.488;2.544;2023-08-17T07:26:46;4.90;;;2.25;;
50731;SDS011;36700;50.488;2.544;2023-08-17T07:29:12;5.22;;;2.40;;
50731;SDS011;36700;50.488;2.544;2023-08-17T07:31:38;4.82;;;2.05;;
50731;SDS011;36700;50.488;2.544;2023-08-17T07:34:05;4.68;;;2.10;;
50731;SDS011;36700;50.488;2.544;2023-08-17T07:36:31;3.30;;;1.80;;
50731;SDS011;36700;50.488;2.544;2023-08-17T07:38:58;2.90;;;2.08;;
50731;SDS011;36700;50.488;2.544;2023-08-17T07:41:24;6.38;;;2.30;;
50731;SDS011;36700;50.488;2.544;2023-08-17T07:43:50;3.72;;;1.98;;
50731;SDS011;36700;50.488;2.544;2023-08-17T07:46:17;3.78;;;1.90;;
50731;SDS011;36700;50.488;2.544;2023-08-17T07:48:43;4.20;;;2.10;;
50731;SDS011;36700;50.488;2.544;2023-08-17T07:51:09;3.80;;;2.10;;
50731;SDS011;36700;50.488;2.544;2023-08-17T07:53:35;5.80;;;2.00;;
50731;SDS011;36700;50.488;2.544;2023-08-17T07:56:01;5.22;;;2.13;;
50731;SDS011;36700;50.488;2.544;2023-08-17T07:58:27;4.97;;;2.28;;
50731;SDS011;36700;50.488;2.544;2023-08-17T08:00:53;4.15;;;1.75;;
50731;SDS011;36700;50.488;2.544;2023-08-17T08:03:19;4.65;;;1.85;;
50731;SDS011;36700;50.488;2.544;2023-08-17T08:05:44;3.05;;;1.90;;
50731;SDS011;36700;50.488;2.544;2023-08-17T08:08:10;4.10;;;2.10;;
50731;SDS011;36700;50.488;2.544;2023-08-17T08:10:36;2.45;;;1.75;;
50731;SDS011;36700;50.488;2.544;2023-08-17T08:13:02;3.75;;;1.70;;
50731;SDS011;36700;50.488;2.544;2023-08-17T08:15:28;2.20;;;1.70;;
50731;SDS011;36700;50.488;2.544;2023-08-17T08:17:54;4.45;;;2.20;;
50731;SDS011;36700;50.488;2.544;2023-08-17T08:20:20;3.38;;;1.70;;
50731;SDS011;36700;50.488;2.544;2023-08-17T08:22:47;4.90;;;2.00;;
50731;SDS011;36700;50.488;2.544;2023-08-17T08:25:12;2.78;;;1.75;;
50731;SDS011;36700;50.488;2.544;2023-08-17T08:27:38;4.55;;;1.90;;
50731;SDS011;36700;50.488;2.544;2023-08-17T08:30:05;4.90;;;2.00;;
50731;SDS011;36700;50.488;2.544;2023-08-17T08:32:32;2.90;;;1.88;;
50731;SDS011;36700;50.488;2.544;2023-08-17T08:34:57;3.50;;;1.90;;
50731;SDS011;36700;50.488;2.544;2023-08-17T08:37:23;4.45;;;2.10;;
50731;SDS011;36700;50.488;2.544;2023-08-17T08:39:50;6.20;;;2.30;;
50731;SDS011;36700;50.488;2.544;2023-08-17T08:42:18;3.75;;;2.00;;
50731;SDS011;36700;50.488;2.544;2023-08-17T08:44:47;2.88;;;1.80;;
50731;SDS011;36700;50.488;2.544;2023-08-17T08:47:16;4.38;;;2.10;;
50731;SDS011;36700;50.488;2.544;2023-08-17T08:52:19;4.60;;;1.90;;
50731;SDS011;36700;50.488;2.544;2023-08-17T08:54:49;3.90;;;1.97;;
50731;SDS011;36700;50.488;2.544;2023-08-17T08:57:16;4.15;;;1.98;;
50731;SDS011;36700;50.488;2.544;2023-08-17T08:59:43;4.75;;;2.30;;
50731;SDS011;36700;50.488;2.544;2023-08-17T09:02:13;3.00;;;1.98;;
50731;SDS011;36700;50.488;2.544;2023-08-17T09:04:44;4.53;;;1.70;;
50731;SDS011;36700;50.488;2.544;2023-08-17T09:07:11;3.80;;;2.20;;
50731;SDS011;36700;50.488;2.544;2023-08-17T09:09:39;3.05;;;1.92;;
50731;SDS011;36700;50.488;2.544;2023-08-17T09:12:08;4.38;;;1.95;;
50731;SDS011;36700;50.488;2.544;2023-08-17T09:14:37;4.15;;;2.08;;
50731;SDS011;36700;50.488;2.544;2023-08-17T09:17:03;4.70;;;2.58;;
50731;SDS011;36700;50.488;2.544;2023-08-17T09:19:31;9.38;;;3.05;;
50731;SDS011;36700;50.488;2.544;2023-08-17T09:21:59;6.47;;;3.10;;
50731;SDS011;36700;50.488;2.544;2023-08-17T09:24:33;7.45;;;3.00;;
50731;SDS011;36700;50.488;2.544;2023-08-17T09:27:03;7.53;;;2.85;;
50731;SDS011;36700;50.488;2.544;2023-08-17T09:29:30;7.07;;;3.45;;
50731;SDS011;36700;50.488;2.544;2023-08-17T09:32:06;5.97;;;3.45;;
50731;SDS011;36700;50.488;2.544;2023-08-17T09:34:32;9.57;;;3.63;;
50731;SDS011;36700;50.488;2.544;2023-08-17T09:37:02;8.07;;;3.80;;
50731;SDS011;36700;50.488;2.544;2023-08-17T09:39:30;10.55;;;3.75;;
50731;SDS011;36700;50.488;2.544;2023-08-17T09:41:59;10.50;;;4.05;;
50731;SDS011;36700;50.488;2.544;2023-08-17T09:44:25;10.07;;;4.18;;
50731;SDS011;36700;50.488;2.544;2023-08-17T09:46:54;7.60;;;3.95;;
50731;SDS011;36700;50.488;2.544;2023-08-17T09:49:24;10.55;;;4.28;;
50731;SDS011;36700;50.488;2.544;2023-08-17T09:51:50;10.98;;;4.90;;
50731;SDS011;36700;50.488;2.544;2023-08-17T09:54:21;11.10;;;4.68;;
50731;SDS011;36700;50.488;2.544;2023-08-17T09:56:52;10.90;;;5.25;;
50731;SDS011;36700;50.488;2.544;2023-08-17T09:59:19;9.43;;;4.88;;
50731;SDS011;36700;50.488;2.544;2023-08-17T10:01:48;9.95;;;5.15;;
50731;SDS011;36700;50.488;2.544;2023-08-17T10:04:25;11.13;;;5.15;;
50731;SDS011;36700;50.488;2.544;2023-08-17T10:06:58;11.75;;;5.30;;
50731;SDS011;36700;50.488;2.544;2023-08-17T10:09:28;10.15;;;5.30;;
50731;SDS011;36700;50.488;2.544;2023-08-17T10:12:02;10.75;;;4.72;;
50731;SDS011;36700;50.488;2.544;2023-08-17T10:14:36;14.80;;;5.53;;
50731;SDS011;36700;50.488;2.544;2023-08-17T10:17:12;11.20;;;5.57;;
50731;SDS011;36700;50.488;2.544;2023-08-17T10:19:52;10.30;;;5.30;;
50731;SDS011;36700;50.488;2.544;2023-08-17T10:22:28;12.80;;;5.93;;
50731;SDS011;36700;50.488;2.544;2023-08-17T10:25:02;12.98;;;6.43;;
50731;SDS011;36700;50.488;2.544;2023-08-17T10:27:30;13.55;;;6.53;;
50731;SDS011;36700;50.488;2.544;2023-08-17T10:29:57;11.30;;;6.03;;
50731;SDS011;36700;50.488;2.544;2023-08-17T10:32:24;17.80;;;7.90;;
50731;SDS011;36700;50.488;2.544;2023-08-17T10:34:51;15.02;;;8.20;;
50731;SDS011;36700;50.488;2.544;2023-08-17T10:37:18;14.60;;;7.43;;
50731;SDS011;36700;50.488;2.544;2023-08-17T10:39:46;15.98;;;7.50;;
50731;SDS011;36700;50.488;2.544;2023-08-17T10:42:13;15.95;;;7.20;;
50731;SDS011;36700;50.488;2.544;2023-08-17T10:44:40;14.15;;;6.85;;
50731;SDS011;36700;50.488;2.544;2023-08-17T10:47:29;13.45;;;6.10;;
50731;SDS011;36700;50.488;2.544;2023-08-17T10:50:03;12.52;;;5.80;;
50731;SDS011;36700;50.488;2.544;2023-08-17T10:54:59;12.55;;;5.68;;
50731;SDS011;36700;50.488;2.544;2023-08-17T10:57:35;11.88;;;5.90;;
50731;SDS011;36700;50.488;2.544;2023-08-17T11:02:58;10.65;;;5.15;;
50731;SDS011;36700;50.488;2.544;2023-08-17T11:13:34;10.00;;;5.38;;
50731;SDS011;36700;50.488;2.544;2023-08-17T11:16:02;11.82;;;6.13;;
50731;SDS011;36700;50.488;2.544;2023-08-17T11:18:29;11.50;;;5.30;;
50731;SDS011;36700;50.488;2.544;2023-08-17T11:20:56;11.30;;;5.00;;
50731;SDS011;36700;50.488;2.544;2023-08-17T11:23:23;11.45;;;5.07;;
50731;SDS011;36700;50.488;2.544;2023-08-17T11:25:49;7.68;;;4.40;;
50731;SDS011;36700;50.488;2.544;2023-08-17T11:28:18;9.00;;;4.47;;
50731;SDS011;36700;50.488;2.544;2023-08-17T11:30:44;10.77;;;4.38;;
50731;SDS011;36700;50.488;2.544;2023-08-17T11:33:10;8.68;;;4.05;;
50731;SDS011;36700;50.488;2.544;2023-08-17T11:35:36;7.82;;;3.88;;
50731;SDS011;36700;50.488;2.544;2023-08-17T11:38:02;9.60;;;3.80;;
50731;SDS011;36700;50.488;2.544;2023-08-17T11:40:31;7.53;;;3.38;;
50731;SDS011;36700;50.488;2.544;2023-08-17T11:42:58;6.82;;;3.50;;
50731;SDS011;36700;50.488;2.544;2023-08-17T11:45:24;9.07;;;3.65;;
50731;SDS011;36700;50.488;2.544;2023-08-17T11:47:50;7.68;;;3.47;;
50731;SDS011;36700;50.488;2.544;2023-08-17T11:50:16;7.18;;;3.35;;
50731;SDS011;36700;50.488;2.544;2023-08-17T11:52:43;6.32;;;3.22;;
50731;SDS011;36700;50.488;2.544;2023-08-17T11:55:09;6.97;;;3.13;;
50731;SDS011;36700;50.488;2.544;2023-08-17T11:57:35;6.30;;;3.10;;
50731;SDS011;36700;50.488;2.544;2023-08-17T12:00:03;6.90;;;3.00;;
50731;SDS011;36700;50.488;2.544;2023-08-17T12:02:35;8.35;;;3.08;;
50731;SDS011;36700;50.488;2.544;2023-08-17T12:05:07;8.85;;;3.40;;
50731;SDS011;36700;50.488;2.544;2023-08-17T12:07:34;6.38;;;3.10;;
50731;SDS011;36700;50.488;2.544;2023-08-17T12:10:04;8.18;;;3.30;;
50731;SDS011;36700;50.488;2.544;2023-08-17T12:12:30;10.07;;;3.35;;
50731;SDS011;36700;50.488;2.544;2023-08-17T12:14:57;9.07;;;3.15;;
50731;SDS011;36700;50.488;2.544;2023-08-17T12:17:23;5.88;;;2.88;;
50731;SDS011;36700;50.488;2.544;2023-08-17T12:19:53;7.32;;;3.00;;
50731;SDS011;36700;50.488;2.544;2023-08-17T12:22:23;6.55;;;2.80;;
50731;SDS011;36700;50.488;2.544;2023-08-17T12:24:50;9.45;;;3.33;;
50731;SDS011;36700;50.488;2.544;2023-08-17T12:27:16;5.72;;;3.00;;
50731;SDS011;36700;50.488;2.544;2023-08-17T12:29:48;6.90;;;3.17;;
50731;SDS011;36700;50.488;2.544;2023-08-17T12:32:15;6.97;;;3.33;;
50731;SDS011;36700;50.488;2.544;2023-08-17T12:34:42;5.97;;;3.20;;
50731;SDS011;36700;50.488;2.544;2023-08-17T12:37:09;4.47;;;2.75;;
50731;SDS011;36700;50.488;2.544;2023-08-17T12:39:36;5.82;;;2.90;;
50731;SDS011;36700;50.488;2.544;2023-08-17T12:42:02;6.03;;;2.88;;
50731;SDS011;36700;50.488;2.544;2023-08-17T12:44:29;6.35;;;2.90;;
50731;SDS011;36700;50.488;2.544;2023-08-17T12:46:54;8.15;;;3.25;;
50731;SDS011;36700;50.488;2.544;2023-08-17T12:49:21;4.65;;;2.75;;
50731;SDS011;36700;50.488;2.544;2023-08-17T12:51:48;5.28;;;2.88;;
50731;SDS011;36700;50.488;2.544;2023-08-17T12:54:14;5.72;;;2.88;;
50731;SDS011;36700;50.488;2.544;2023-08-17T12:56:40;7.35;;;3.10;;
50731;SDS011;36700;50.488;2.544;2023-08-17T12:59:06;7.60;;;3.30;;
50731;SDS011;36700;50.488;2.544;2023-08-17T13:01:33;6.13;;;3.10;;
50731;SDS011;36700;50.488;2.544;2023-08-17T13:03:59;5.40;;;2.78;;
50731;SDS011;36700;50.488;2.544;2023-08-17T13:06:25;10.90;;;3.00;;
50731;SDS011;36700;50.488;2.544;2023-08-17T13:08:51;6.70;;;2.80;;
50731;SDS011;36700;50.488;2.544;2023-08-17T13:11:16;7.18;;;3.10;;
50731;SDS011;36700;50.488;2.544;2023-08-17T13:13:42;7.88;;;3.05;;
50731;SDS011;36700;50.488;2.544;2023-08-17T13:16:08;5.60;;;3.17;;
50731;SDS011;36700;50.488;2.544;2023-08-17T13:18:35;5.95;;;2.70;;
50731;SDS011;36700;50.488;2.544;2023-08-17T13:21:01;5.53;;;3.03;;
50731;SDS011;36700;50.488;2.544;2023-08-17T13:23:27;4.43;;;2.70;;
50731;SDS011;36700;50.488;2.544;2023-08-17T13:25:52;6.18;;;3.15;;
50731;SDS011;36700;50.488;2.544;2023-08-17T13:28:18;8.15;;;3.50;;
50731;SDS011;36700;50.488;2.544;2023-08-17T13:30:44;5.85;;;3.20;;
50731;SDS011;36700;50.488;2.544;2023-08-17T13:33:10;6.25;;;3.00;;
50731;SDS011;36700;50.488;2.544;2023-08-17T13:35:36;5.55;;;3.10;;
50731;SDS011;36700;50.488;2.544;2023-08-17T13:38:02;5.32;;;3.03;;
50731;SDS011;36700;50.488;2.544;2023-08-17T13:40:30;7.35;;;3.58;;
50731;SDS011;36700;50.488;2.544;2023-08-17T13:42:56;6.18;;;3.20;;
50731;SDS011;36700;50.488;2.544;2023-08-17T13:45:24;6.35;;;2.83;;
50731;SDS011;36700;50.488;2.544;2023-08-17T13:47:50;6.75;;;3.42;;
50731;SDS011;36700;50.488;2.544;2023-08-17T13:50:16;5.30;;;3.20;;
50731;SDS011;36700;50.488;2.544;2023-08-17T13:52:44;6.95;;;3.10;;
50731;SDS011;36700;50.488;2.544;2023-08-17T13:55:10;5.90;;;3.35;;
50731;SDS011;36700;50.488;2.544;2023-08-17T13:57:36;6.32;;;3.45;;
50731;SDS011;36700;50.488;2.544;2023-08-17T14:00:02;8.45;;;3.05;;
50731;SDS011;36700;50.488;2.544;2023-08-17T14:02:29;6.45;;;3.20;;
50731;SDS011;36700;50.488;2.544;2023-08-17T14:04:56;8.43;;;3.20;;
50731;SDS011;36700;50.488;2.544;2023-08-17T14:07:21;7.40;;;3.28;;
50731;SDS011;36700;50.488;2.544;2023-08-17T14:09:47;5.72;;;2.90;;
50731;SDS011;36700;50.488;2.544;2023-08-17T14:12:13;5.85;;;3.10;;
50731;SDS011;36700;50.488;2.544;2023-08-17T14:14:39;5.80;;;2.92;;
50731;SDS011;36700;50.488;2.544;2023-08-17T14:17:05;6.72;;;3.30;;
50731;SDS011;36700;50.488;2.544;2023-08-17T14:19:31;7.93;;;3.40;;
50731;SDS011;36700;50.488;2.544;2023-08-17T14:21:57;6.05;;;2.92;;
50731;SDS011;36700;50.488;2.544;2023-08-17T14:24:26;6.07;;;3.15;;
50731;SDS011;36700;50.488;2.544;2023-08-17T14:26:52;6.60;;;3.20;;
50731;SDS011;36700;50.488;2.544;2023-08-17T14:29:18;7.22;;;3.15;;
50731;SDS011;36700;50.488;2.544;2023-08-17T14:31:44;5.90;;;3.20;;
50731;SDS011;36700;50.488;2.544;2023-08-17T14:34:10;7.20;;;3.20;;
50731;SDS011;36700;50.488;2.544;2023-08-17T14:36:36;6.32;;;3.17;;
50731;SDS011;36700;50.488;2.544;2023-08-17T14:39:02;6.88;;;3.33;;
50731;SDS011;36700;50.488;2.544;2023-08-17T14:41:28;5.97;;;2.97;;
50731;SDS011;36700;50.488;2.544;2023-08-17T14:44:00;5.80;;;3.25;;
50731;SDS011;36700;50.488;2.544;2023-08-17T14:46:27;6.90;;;3.10;;
50731;SDS011;36700;50.488;2.544;2023-08-17T14:48:54;5.63;;;3.10;;
50731;SDS011;36700;50.488;2.544;2023-08-17T14:51:20;5.70;;;3.13;;
50731;SDS011;36700;50.488;2.544;2023-08-17T14:53:46;9.15;;;3.97;;
50731;SDS011;36700;50.488;2.544;2023-08-17T14:56:11;10.63;;;4.13;;
50731;SDS011;36700;50.488;2.544;2023-08-17T14:58:37;9.85;;;4.55;;
50731;SDS011;36700;50.488;2.544;2023-08-17T15:01:03;9.05;;;4.53;;
50731;SDS011;36700;50.488;2.544;2023-08-17T15:03:29;10.82;;;5.15;;